createdAt,value
2018-02-11T00:01:30.478Z,14.70
2018-02-11T00:06:59.412Z,19.93
2018-02-11T00:12:28.335Z,15.20
2018-02-11T00:17:56.510Z,15.80
2018-02-11T00:23:24.670Z,14.47
2018-02-11T00:28:53.590Z,15.10
2018-02-11T00:34:21.739Z,14.73
2018-02-11T00:39:49.882Z,14.60
2018-02-11T00:45:18.034Z,16.23
2018-02-11T00:50:46.158Z,13.57
2018-02-11T00:56:14.281Z,15.13
2018-02-11T01:01:43.417Z,14.97
2018-02-11T01:07:11.597Z,16.20
2018-02-11T01:12:40.503Z,14.93
2018-02-11T01:18:08.905Z,11.83
2018-02-11T01:23:37.340Z,12.10
2018-02-11T01:29:05.502Z,13.83
2018-02-11T01:34:34.539Z,15.30
2018-02-11T01:40:03.527Z,12.20
2018-02-11T01:45:31.855Z,13.57
2018-02-11T01:51:00.071Z,12.57
2018-02-11T01:56:29.160Z,14.67
2018-02-11T02:01:58.077Z,11.83
2018-02-11T02:07:26.243Z,11.77
2018-02-11T02:12:54.360Z,12.10
2018-02-11T02:18:22.674Z,12.00
2018-02-11T02:23:51.584Z,13.73
2018-02-11T02:29:19.733Z,11.60
2018-02-11T02:34:48.622Z,12.40
2018-02-11T02:40:16.777Z,11.87
2018-02-11T02:45:45.691Z,14.77
2018-02-11T02:51:13.822Z,12.80
2018-02-11T02:56:41.966Z,15.23
2018-02-11T03:02:10.102Z,15.70
2018-02-11T03:07:38.300Z,13.90
2018-02-11T03:13:07.200Z,11.60
2018-02-11T03:18:35.358Z,11.00
2018-02-11T03:24:04.486Z,13.50
2018-02-11T03:29:33.388Z,16.60
2018-02-11T03:35:01.778Z,14.23
2018-02-11T03:40:29.991Z,12.40
2018-02-11T03:45:58.152Z,14.50
2018-02-11T03:51:26.301Z,16.53
2018-02-11T03:56:54.457Z,14.07
2018-02-11T04:02:22.616Z,11.67
2018-02-11T04:07:50.800Z,15.70
2018-02-11T04:13:18.952Z,17.33
2018-02-11T04:18:49.096Z,14.37
2018-02-11T04:24:17.242Z,15.07
2018-02-11T04:29:45.601Z,15.90
2018-02-11T04:35:14.499Z,14.80
2018-02-11T04:40:42.649Z,18.43
2018-02-11T04:46:10.806Z,15.97
2018-02-11T04:51:38.998Z,12.57
2018-02-11T04:57:07.899Z,14.90
2018-02-11T05:02:36.048Z,14.77
2018-02-11T05:08:04.232Z,18.10
2018-02-11T05:13:32.404Z,18.03
2018-02-11T05:19:00.803Z,20.17
2018-02-11T05:24:28.942Z,19.83
2018-02-11T05:29:57.847Z,17.60
2018-02-11T05:35:25.987Z,15.60
2018-02-11T05:40:54.146Z,15.53
2018-02-11T05:46:22.289Z,13.20
2018-02-11T05:51:50.426Z,15.83
2018-02-11T05:57:18.582Z,21.20
2018-02-11T06:02:47.508Z,21.43
2018-02-11T06:08:15.651Z,14.93
2018-02-11T06:13:43.798Z,15.80
2018-02-11T06:19:11.939Z,15.00
2018-02-11T06:24:40.111Z,14.30
2018-02-11T06:30:08.330Z,16.20
2018-02-11T06:35:36.487Z,19.97
2018-02-11T06:41:04.711Z,15.80
2018-02-11T06:46:32.924Z,15.73
2018-02-11T06:52:01.093Z,15.47
2018-02-11T06:57:30.013Z,16.50
2018-02-11T07:02:58.179Z,16.33
2018-02-11T07:08:26.322Z,14.10
2018-02-11T07:13:54.482Z,14.43
2018-02-11T07:19:22.841Z,14.07
2018-02-11T07:24:51.054Z,17.47
2018-02-11T07:30:19.964Z,12.90
2018-02-11T07:35:48.117Z,13.97
2018-02-11T07:41:16.311Z,12.50
2018-02-11T07:46:45.241Z,10.80
2018-02-11T07:52:13.401Z,12.80
2018-02-11T07:57:41.529Z,9.10
2018-02-11T08:03:09.658Z,13.20
2018-02-11T08:08:37.868Z,9.67
2018-02-11T08:14:06.104Z,9.17
2018-02-11T08:19:35.353Z,10.07
2018-02-11T08:25:04.948Z,10.17
2018-02-11T08:30:33.097Z,10.40
2018-02-11T08:36:01.396Z,10.73
2018-02-11T08:41:30.398Z,11.77
2018-02-11T08:46:58.606Z,12.30
2018-02-11T08:52:26.854Z,14.37
2018-02-11T08:57:54.981Z,13.53
2018-02-11T09:03:23.106Z,14.10
2018-02-11T09:08:52.276Z,14.40
2018-02-11T09:14:21.428Z,14.50
2018-02-11T09:19:49.722Z,12.17
2018-02-11T09:25:19.602Z,15.13
2018-02-11T09:30:47.855Z,14.27
2018-02-11T09:36:16.147Z,12.77
2018-02-11T09:41:44.367Z,17.10
2018-02-11T09:47:13.630Z,11.73
2018-02-11T09:52:41.784Z,14.87
2018-02-11T09:58:09.924Z,18.13
2018-02-11T10:03:38.862Z,15.83
2018-02-11T10:09:07.222Z,15.27
2018-02-11T10:14:35.554Z,15.93
2018-02-11T10:20:04.552Z,16.30
2018-02-11T10:25:32.811Z,14.43
2018-02-11T10:31:01.949Z,17.67
2018-02-11T10:36:30.099Z,16.30
2018-02-11T10:41:58.412Z,18.97
2018-02-11T10:47:27.494Z,16.77
2018-02-11T10:52:55.649Z,17.23
2018-02-11T10:58:23.777Z,13.20
2018-02-11T11:03:52.143Z,15.90
2018-02-11T11:09:24.038Z,13.93
2018-02-11T11:14:54.461Z,16.67
2018-02-11T11:20:23.762Z,17.77
2018-02-11T11:25:51.929Z,17.30
2018-02-11T11:31:33.704Z,15.17
2018-02-11T11:37:02.455Z,14.03
2018-02-11T11:42:30.625Z,18.00
2018-02-11T11:47:59.005Z,16.93
2018-02-11T11:53:28.115Z,15.67
2018-02-11T11:58:56.266Z,15.47
2018-02-11T12:04:24.414Z,11.07
2018-02-11T12:09:54.523Z,13.60
2018-02-11T12:15:22.738Z,14.07
2018-02-11T12:20:51.175Z,13.80
2018-02-11T12:26:21.409Z,10.13
2018-02-11T12:31:51.839Z,10.87
2018-02-11T12:37:20.179Z,10.80
2018-02-11T12:42:48.486Z,13.30
2018-02-11T12:48:17.377Z,15.23
2018-02-11T12:53:46.278Z,14.33
2018-02-11T12:59:14.459Z,13.60
2018-02-11T13:04:42.644Z,12.23
2018-02-11T13:10:11.072Z,16.97
2018-02-11T13:15:40.176Z,14.00
2018-02-11T13:21:08.373Z,13.33
2018-02-11T13:26:36.552Z,14.20
2018-02-11T13:32:04.699Z,11.20
2018-02-11T13:37:32.891Z,15.23
2018-02-11T13:43:01.053Z,9.97
2018-02-11T13:48:29.239Z,10.43
2018-02-11T13:53:57.464Z,14.13
2018-02-11T13:59:26.367Z,16.20
2018-02-11T14:04:54.544Z,12.00
2018-02-11T14:10:22.721Z,11.87
2018-02-11T14:15:50.868Z,12.73
2018-02-11T14:21:19.788Z,8.87
2018-02-11T14:26:47.929Z,7.30
2018-02-11T14:32:16.818Z,10.50
2018-02-11T14:37:44.973Z,14.57
2018-02-11T14:43:13.964Z,12.93
2018-02-11T14:48:42.220Z,11.80
2018-02-11T14:54:10.518Z,14.50
2018-02-11T14:59:38.675Z,15.30
2018-02-11T15:05:07.649Z,18.40
2018-02-11T15:10:35.808Z,15.20
2018-02-11T15:16:04.071Z,17.07
2018-02-11T15:21:33.194Z,16.33
2018-02-11T15:27:02.215Z,16.00
2018-02-11T15:32:30.384Z,19.33
2018-02-11T15:38:00.609Z,15.17
2018-02-11T15:43:28.863Z,16.80
2018-02-11T15:48:57.084Z,13.03
2018-02-11T15:54:25.218Z,15.00
2018-02-11T15:59:54.148Z,19.63
2018-02-11T16:05:22.299Z,15.07
2018-02-11T16:10:50.417Z,15.70
2018-02-11T16:16:18.598Z,14.33
2018-02-11T16:21:46.763Z,13.60
2018-02-11T16:27:16.008Z,16.80
2018-02-11T16:32:44.201Z,15.73
2018-02-11T16:38:14.855Z,15.50
2018-02-11T16:43:43.926Z,14.13
2018-02-11T16:49:12.297Z,14.27
2018-02-11T16:54:40.481Z,13.27
2018-02-11T17:00:08.659Z,13.30
2018-02-11T17:05:37.600Z,17.57
2018-02-11T17:11:06.513Z,16.33
2018-02-11T17:16:34.669Z,12.30
2018-02-11T17:22:02.846Z,13.90
2018-02-11T17:27:30.994Z,15.57
2018-02-11T17:32:59.936Z,18.17
2018-02-11T17:38:28.812Z,14.17
2018-02-11T17:43:56.978Z,22.57
2018-02-11T17:49:25.880Z,15.77
2018-02-11T17:54:54.046Z,14.63
2018-02-11T18:00:22.966Z,15.50
2018-02-11T18:05:51.094Z,16.20
2018-02-11T18:11:20.017Z,11.00
2018-02-11T18:16:48.161Z,12.23
2018-02-11T18:22:16.301Z,14.40
2018-02-11T18:27:45.202Z,13.23
2018-02-11T18:33:13.679Z,14.80
2018-02-11T18:38:42.077Z,13.10
2018-02-11T18:44:11.348Z,17.57
2018-02-11T18:49:39.743Z,8.70
2018-02-11T18:55:08.860Z,9.00
2018-02-11T19:00:37.201Z,13.67
2018-02-11T19:06:06.919Z,11.10
2018-02-11T19:11:35.359Z,11.53
2018-02-11T19:17:03.784Z,7.53
2018-02-11T19:22:32.185Z,7.10
2018-02-11T19:28:00.588Z,10.20
2018-02-11T19:33:28.930Z,8.97
2018-02-11T19:38:57.363Z,10.43
2018-02-11T19:44:25.507Z,10.03
2018-02-11T19:49:55.346Z,10.27
2018-02-11T19:55:23.716Z,11.87
2018-02-11T20:00:52.027Z,12.00
2018-02-11T20:06:20.373Z,10.37
2018-02-11T20:11:49.457Z,8.80
2018-02-11T20:17:17.773Z,9.50
2018-02-11T20:22:46.066Z,9.77
2018-02-11T20:28:14.623Z,10.10
2018-02-11T20:33:43.727Z,10.07
2018-02-11T20:39:15.021Z,7.90
2018-02-11T20:44:44.149Z,8.20
2018-02-11T20:50:13.256Z,10.47
2018-02-11T20:55:41.643Z,8.17
2018-02-11T21:01:09.976Z,6.57
2018-02-11T21:06:38.290Z,7.80
2018-02-11T21:12:10.817Z,6.70
2018-02-11T21:17:39.178Z,9.40
2018-02-11T21:23:07.402Z,8.70
2018-02-11T21:28:35.568Z,7.90
2018-02-11T21:34:04.517Z,7.40
2018-02-11T21:39:32.841Z,9.17
2018-02-11T21:45:01.385Z,8.57
2018-02-11T21:50:29.760Z,7.10
2018-02-11T21:55:58.167Z,8.40
2018-02-11T22:01:26.529Z,7.00
2018-02-11T22:06:55.616Z,8.10
2018-02-11T22:12:23.916Z,6.40
2018-02-11T22:17:53.330Z,7.63
2018-02-11T22:23:21.699Z,4.73
2018-02-11T22:28:49.818Z,8.87
2018-02-11T22:34:17.959Z,3.90
2018-02-11T22:39:46.144Z,3.60
2018-02-11T22:45:14.270Z,2.50
2018-02-11T22:50:42.409Z,4.37
2018-02-11T22:56:10.563Z,5.30
2018-02-11T23:01:38.694Z,3.60
2018-02-11T23:07:06.857Z,14.10
2018-02-11T23:12:35.619Z,5.77
2018-02-11T23:18:03.783Z,4.63
2018-02-11T23:23:32.691Z,4.17
2018-02-11T23:29:00.872Z,6.33
2018-02-11T23:34:30.581Z,5.97
2018-02-11T23:39:58.737Z,4.50
2018-02-11T23:45:26.865Z,5.73
2018-02-11T23:50:55.049Z,6.10
2018-02-11T23:56:23.942Z,5.63
